Time;durP1;ratioP1;P1;durP2;ratioP2;P2;SDS_P1;SDS_P2;PMS_P1;PMS_P2;Temp;Humidity;BMP_temperature;BMP_pressure;BME280_temperature;BME280_humidity;BME280_pressure;Samples;Min_cycle;Max_cycle;Signal;HPM_P1;HPM_P2
2023/07/12 00:01:14;;;;;;;;;;;16.10;99.90;;;;;;5127003;27;20370;-55
2023/07/12 00:03:39;;;;;;;;;;;16.10;99.90;;;;;;5131511;27;20002;-57
2023/07/12 00:06:15;;;;;;;;;;;16.10;99.90;;;;;;5139265;27;19968;-56
2023/07/12 00:08:41;;;;;;;;;;;16.10;99.90;;;;;;5133414;27;19915;-56
2023/07/12 00:11:13;;;;;;;;;;;16.10;99.90;;;;;;5139276;27;19956;-56
2023/07/12 00:13:38;;;;;;;;;;;16.00;99.90;;;;;;5128204;27;19947;-57
2023/07/12 00:16:09;;;;;;;;;;;16.00;99.90;;;;;;5121668;27;19911;-56
2023/07/12 00:18:34;;;;;;;;;;;16.00;99.90;;;;;;5136552;27;19920;-55
2023/07/12 00:21:00;;;;;;;;;;;16.00;99.90;;;;;;5126501;27;20400;-54
2023/07/12 00:23:26;;;;;;;;;;;16.00;99.90;;;;;;5138829;27;19911;-56
2023/07/12 00:25:51;;;;;;;;;;;16.00;99.90;;;;;;5130123;27;19918;-56
2023/07/12 00:28:23;;;;;;;;;;;16.00;99.90;;;;;;5139006;27;19915;-56
2023/07/12 00:30:49;;;;;;;;;;;15.90;99.90;;;;;;5121229;27;19911;-55
2023/07/12 00:33:14;;;;;;;;;;;16.00;99.90;;;;;;5135317;27;20390;-56
2023/07/12 00:35:41;;;;;;;;;;;16.00;99.90;;;;;;5132168;27;19939;-56
2023/07/12 00:38:14;;;;;;;;;;;15.90;99.90;;;;;;5129471;27;19916;-56
2023/07/12 00:40:56;;;;;;;;;;;16.00;99.90;;;;;;5129122;27;20392;-56
2023/07/12 00:43:40;;;;;;;;;;;15.90;99.90;;;;;;5127017;27;19962;-55
2023/07/12 00:46:15;;;;;;;;;;;15.90;99.90;;;;;;5133847;27;19918;-56
2023/07/12 00:48:41;;;;;;;;;;;15.90;99.90;;;;;;5138585;27;19937;-54
2023/07/12 00:51:23;;;;;;;;;;;15.90;99.90;;;;;;5138060;27;20343;-54
2023/07/12 00:53:49;;;;;;;;;;;15.90;99.90;;;;;;5121762;27;19911;-54
2023/07/12 00:56:14;;;;;;;;;;;15.80;99.90;;;;;;5124362;27;19912;-56
2023/07/12 00:58:44;;;;;;;;;;;15.80;99.90;;;;;;5119860;27;19919;-56
2023/07/12 01:01:11;;;;;;;;;;;15.80;99.90;;;;;;5120328;27;19912;-54
2023/07/12 01:03:38;;;;;;;;;;;15.80;99.90;;;;;;5131523;27;19918;-56
2023/07/12 01:06:06;;;;;;;;;;;15.80;99.90;;;;;;5120073;27;19908;-56
2023/07/12 01:08:32;;;;;;;;;;;15.80;99.90;;;;;;5118524;28;20010;-55
2023/07/12 01:10:59;;;;;;;;;;;15.80;99.90;;;;;;5118723;28;19907;-55
2023/07/12 01:13:24;;;;;;;;;;;15.80;99.90;;;;;;5122726;27;19908;-56
2023/07/12 01:15:51;;;;;;;;;;;15.80;99.90;;;;;;5137506;27;19912;-56
2023/07/12 01:18:17;;;;;;;;;;;15.70;99.90;;;;;;5133042;27;19924;-56
2023/07/12 01:20:43;;;;;;;;;;;15.70;99.90;;;;;;5128251;27;19939;-55
2023/07/12 01:23:09;;;;;;;;;;;15.80;99.90;;;;;;5139056;27;19908;-56
2023/07/12 01:25:40;;;;;;;;;;;15.70;99.90;;;;;;5138639;27;19929;-54
2023/07/12 01:28:06;;;;;;;;;;;15.70;99.90;;;;;;5137224;28;20412;-54
2023/07/12 01:30:31;;;;;;;;;;;15.70;99.90;;;;;;5137837;28;19907;-55
2023/07/12 01:32:57;;;;;;;;;;;15.70;99.90;;;;;;5122083;28;19934;-55
2023/07/12 01:35:23;;;;;;;;;;;15.60;99.90;;;;;;5138994;28;19908;-54
2023/07/12 01:37:48;;;;;;;;;;;15.70;99.90;;;;;;5119901;28;19912;-56
2023/07/12 01:40:14;;;;;;;;;;;15.60;99.90;;;;;;5128032;28;19912;-56
2023/07/12 01:42:40;;;;;;;;;;;15.70;99.90;;;;;;5130061;28;19916;-55
2023/07/12 01:45:06;;;;;;;;;;;15.70;99.90;;;;;;5138697;28;19929;-54
2023/07/12 01:47:32;;;;;;;;;;;15.60;99.90;;;;;;5135510;28;19912;-53
2023/07/12 01:50:09;;;;;;;;;;;15.60;99.90;;;;;;5118756;28;20294;-56
2023/07/12 01:52:38;;;;;;;;;;;15.60;99.90;;;;;;5120573;28;19918;-56
2023/07/12 01:55:03;;;;;;;;;;;15.60;99.90;;;;;;5137648;28;19912;-55
2023/07/12 01:57:29;;;;;;;;;;;15.60;99.90;;;;;;5137628;28;19929;-53
2023/07/12 01:59:55;;;;;;;;;;;15.50;99.90;;;;;;5132282;28;19912;-55
2023/07/12 02:02:20;;;;;;;;;;;15.50;99.90;;;;;;5133761;28;20466;-55
2023/07/12 02:04:46;;;;;;;;;;;15.50;99.90;;;;;;5137136;28;19962;-55
2023/07/12 02:07:12;;;;;;;;;;;15.40;99.90;;;;;;5129167;28;19911;-53
2023/07/12 02:09:41;;;;;;;;;;;15.40;99.90;;;;;;5135641;28;19911;-57
2023/07/12 02:14:55;;;;;;;;;;;15.40;99.90;;;;;;5121576;27;19938;-55
2023/07/12 02:17:21;;;;;;;;;;;15.30;99.90;;;;;;5141038;27;20356;-56
2023/07/12 02:22:32;;;;;;;;;;;15.20;99.90;;;;;;5121771;28;19919;-54
2023/07/12 02:24:57;;;;;;;;;;;15.20;99.90;;;;;;5121377;27;19908;-55
2023/07/12 02:27:23;;;;;;;;;;;15.10;99.90;;;;;;5126693;27;19925;-58
2023/07/12 02:29:49;;;;;;;;;;;15.10;99.90;;;;;;5133260;27;19919;-54
2023/07/12 02:32:14;;;;;;;;;;;15.10;99.90;;;;;;5129816;27;19907;-56
2023/07/12 02:34:40;;;;;;;;;;;15.10;99.90;;;;;;5141033;27;19923;-55
2023/07/12 02:37:06;;;;;;;;;;;15.00;99.90;;;;;;5132325;27;20431;-56
2023/07/12 02:39:32;;;;;;;;;;;15.00;99.90;;;;;;5128708;27;19908;-55
2023/07/12 02:41:57;;;;;;;;;;;14.90;99.90;;;;;;5124544;27;19919;-56
2023/07/12 02:44:23;;;;;;;;;;;14.90;99.90;;;;;;5131346;27;20725;-56
2023/07/12 02:46:49;;;;;;;;;;;14.90;99.90;;;;;;5141508;27;19908;-57
2023/07/12 02:49:14;;;;;;;;;;;14.80;99.90;;;;;;5135443;27;19911;-55
2023/07/12 02:51:40;;;;;;;;;;;14.80;99.90;;;;;;5120843;27;20314;-56
2023/07/12 02:54:06;;;;;;;;;;;14.80;99.90;;;;;;5123855;27;19920;-56
2023/07/12 02:56:31;;;;;;;;;;;14.70;99.90;;;;;;5131988;27;19957;-56
2023/07/12 02:58:57;;;;;;;;;;;14.70;99.90;;;;;;5138843;27;19912;-55
2023/07/12 03:01:23;;;;;;;;;;;14.70;99.90;;;;;;5124171;27;19915;-54
2023/07/12 03:03:49;;;;;;;;;;;14.70;99.90;;;;;;5141284;27;20290;-56
2023/07/12 03:06:14;;;;;;;;;;;14.60;99.90;;;;;;5141666;27;19914;-54
2023/07/12 03:08:40;;;;;;;;;;;14.60;99.90;;;;;;5136920;27;20351;-55
2023/07/12 03:11:06;;;;;;;;;;;14.60;99.90;;;;;;5123741;27;19956;-56
2023/07/12 03:13:32;;;;;;;;;;;14.60;99.90;;;;;;5130039;27;20410;-56
2023/07/12 03:15:58;;;;;;;;;;;14.60;99.90;;;;;;5140431;27;19947;-54
2023/07/12 03:18:24;;;;;;;;;;;14.50;99.90;;;;;;5140879;27;20385;-55
2023/07/12 03:20:50;;;;;;;;;;;14.50;99.90;;;;;;5122763;27;19912;-56
2023/07/12 03:23:16;;;;;;;;;;;14.50;99.90;;;;;;5140751;27;20002;-56
2023/07/12 03:25:45;;;;;;;;;;;14.40;99.90;;;;;;5140859;27;20409;-55
2023/07/12 03:28:11;;;;;;;;;;;14.40;99.90;;;;;;5138341;27;19998;-57
2023/07/12 03:30:36;;;;;;;;;;;14.40;99.90;;;;;;5133076;27;19950;-54
2023/07/12 03:33:02;;;;;;;;;;;14.40;99.90;;;;;;5141198;27;19908;-55
2023/07/12 03:35:28;;;;;;;;;;;14.30;99.90;;;;;;5134504;27;19911;-56
2023/07/12 03:38:07;;;;;;;;;;;14.30;99.90;;;;;;5131227;27;19920;-55
2023/07/12 03:40:32;;;;;;;;;;;14.30;99.90;;;;;;5121306;27;19960;-54
2023/07/12 03:42:58;;;;;;;;;;;14.30;99.90;;;;;;5138102;27;19911;-54
2023/07/12 03:45:24;;;;;;;;;;;14.20;99.90;;;;;;5132050;27;19918;-56
2023/07/12 03:47:49;;;;;;;;;;;14.20;99.90;;;;;;5132499;27;19916;-55
2023/07/12 03:50:16;;;;;;;;;;;14.20;99.90;;;;;;5130573;27;19920;-56
2023/07/12 03:52:42;;;;;;;;;;;14.20;99.90;;;;;;5127325;27;19950;-55
2023/07/12 03:55:11;;;;;;;;;;;14.10;99.90;;;;;;5136401;27;19919;-55
2023/07/12 03:57:41;;;;;;;;;;;14.10;99.90;;;;;;5137443;27;19912;-54
2023/07/12 04:00:08;;;;;;;;;;;14.10;99.90;;;;;;5128944;27;19957;-56
2023/07/12 04:02:34;;;;;;;;;;;14.00;99.90;;;;;;5119776;28;19909;-55
2023/07/12 04:05:00;;;;;;;;;;;14.00;99.90;;;;;;5123302;27;20277;-56
2023/07/12 04:07:26;;;;;;;;;;;14.00;99.90;;;;;;5119897;28;19954;-55
2023/07/12 04:09:51;;;;;;;;;;;14.00;99.90;;;;;;5119410;28;19951;-55
2023/07/12 04:12:17;;;;;;;;;;;13.90;99.90;;;;;;5132485;27;20362;-56
2023/07/12 04:14:43;;;;;;;;;;;14.00;99.90;;;;;;5119394;28;19919;-54
2023/07/12 04:17:09;;;;;;;;;;;13.90;99.90;;;;;;5119714;28;20278;-57
2023/07/12 04:19:34;;;;;;;;;;;13.90;99.90;;;;;;5119493;28;19982;-55
2023/07/12 04:22:00;;;;;;;;;;;13.90;99.90;;;;;;5136163;27;19921;-55
2023/07/12 04:24:25;;;;;;;;;;;13.90;99.90;;;;;;5126886;27;19911;-56
2023/07/12 04:26:51;;;;;;;;;;;13.90;99.90;;;;;;5139481;27;19919;-55
2023/07/12 04:29:17;;;;;;;;;;;13.80;99.90;;;;;;5139116;27;19928;-56
2023/07/12 04:31:42;;;;;;;;;;;13.80;99.90;;;;;;5139665;27;19911;-55
2023/07/12 04:34:08;;;;;;;;;;;13.80;99.90;;;;;;5127449;27;19957;-55
2023/07/12 04:36:33;;;;;;;;;;;13.80;99.90;;;;;;5118789;28;20393;-55
2023/07/12 04:38:59;;;;;;;;;;;13.80;99.90;;;;;;5125206;27;20251;-56
2023/07/12 04:41:25;;;;;;;;;;;13.80;99.90;;;;;;5139067;27;20491;-56
2023/07/12 04:43:51;;;;;;;;;;;13.80;99.90;;;;;;5137655;27;19912;-56
2023/07/12 04:46:16;;;;;;;;;;;13.70;99.90;;;;;;5129558;27;19947;-55
2023/07/12 04:48:42;;;;;;;;;;;13.70;99.90;;;;;;5132705;27;19911;-55
2023/07/12 04:51:07;;;;;;;;;;;13.70;99.90;;;;;;5139621;27;19972;-55
2023/07/12 04:53:33;;;;;;;;;;;13.80;99.90;;;;;;5127815;27;19930;-55
2023/07/12 04:55:59;;;;;;;;;;;13.70;99.90;;;;;;5123336;27;20015;-55
2023/07/12 04:58:26;;;;;;;;;;;13.70;99.90;;;;;;5137998;27;20006;-56
2023/07/12 05:00:52;;;;;;;;;;;13.70;99.90;;;;;;5139028;27;20294;-55
2023/07/12 05:03:18;;;;;;;;;;;13.70;99.90;;;;;;5129315;27;19908;-56
2023/07/12 05:05:44;;;;;;;;;;;13.70;99.90;;;;;;5118690;28;19920;-56
2023/07/12 05:08:10;;;;;;;;;;;13.80;99.90;;;;;;5118810;28;19914;-55
2023/07/12 05:10:36;;;;;;;;;;;13.80;99.90;;;;;;5132427;27;19907;-54
2023/07/12 05:13:02;;;;;;;;;;;13.80;99.90;;;;;;5125307;27;19961;-54
2023/07/12 05:15:27;;;;;;;;;;;13.80;99.90;;;;;;5129022;27;20365;-54
2023/07/12 05:17:53;;;;;;;;;;;13.90;99.90;;;;;;5134521;27;19927;-56
2023/07/12 05:20:19;;;;;;;;;;;13.90;99.90;;;;;;5136519;27;19961;-54
2023/07/12 05:22:47;;;;;;;;;;;13.90;99.90;;;;;;5138001;27;20014;-54
2023/07/12 05:25:12;;;;;;;;;;;13.90;99.90;;;;;;5130427;27;19998;-54
2023/07/12 05:27:39;;;;;;;;;;;13.90;99.90;;;;;;5127083;27;19968;-56
2023/07/12 05:30:05;;;;;;;;;;;13.90;99.90;;;;;;5132033;27;20315;-56
2023/07/12 05:32:30;;;;;;;;;;;14.00;99.90;;;;;;5126702;28;20309;-55
2023/07/12 05:34:56;;;;;;;;;;;14.00;99.90;;;;;;5115926;28;19911;-56
2023/07/12 05:37:22;;;;;;;;;;;14.00;99.90;;;;;;5121296;28;19916;-55
2023/07/12 05:39:48;;;;;;;;;;;14.10;99.90;;;;;;5132990;28;20373;-54
2023/07/12 05:42:13;;;;;;;;;;;14.10;99.90;;;;;;5136296;28;20305;-54
2023/07/12 05:44:39;;;;;;;;;;;14.10;99.90;;;;;;5137486;28;20002;-57
2023/07/12 05:47:05;;;;;;;;;;;14.20;99.90;;;;;;5129172;28;20320;-56
2023/07/12 05:49:31;;;;;;;;;;;14.30;99.90;;;;;;5135183;27;19911;-55
2023/07/12 05:52:00;;;;;;;;;;;14.30;99.90;;;;;;5132321;27;19998;-56
2023/07/12 05:54:25;;;;;;;;;;;14.40;99.90;;;;;;5140097;27;19953;-55
2023/07/12 05:56:51;;;;;;;;;;;14.40;99.90;;;;;;5138114;27;19960;-55
2023/07/12 05:59:18;;;;;;;;;;;14.50;99.90;;;;;;5121948;27;19916;-55
2023/07/12 06:01:44;;;;;;;;;;;14.50;99.90;;;;;;5122088;28;19908;-55
2023/07/12 06:04:11;;;;;;;;;;;14.60;99.90;;;;;;5121787;28;20367;-56
2023/07/12 06:06:37;;;;;;;;;;;14.70;99.90;;;;;;5127079;27;20408;-56
2023/07/12 06:09:02;;;;;;;;;;;14.90;99.90;;;;;;5130216;27;20018;-57
2023/07/12 06:11:28;;;;;;;;;;;15.10;99.90;;;;;;5141739;27;19942;-56
2023/07/12 06:13:54;;;;;;;;;;;15.30;99.90;;;;;;5141751;27;20303;-56
2023/07/12 06:16:19;;;;;;;;;;;15.50;99.90;;;;;;5142059;27;19914;-54
2023/07/12 06:18:45;;;;;;;;;;;15.60;99.90;;;;;;5141416;27;19941;-56
2023/07/12 06:21:11;;;;;;;;;;;15.70;99.90;;;;;;5141465;27;19919;-56
2023/07/12 06:23:37;;;;;;;;;;;15.80;99.90;;;;;;5141215;27;19907;-56
2023/07/12 06:26:08;;;;;;;;;;;15.90;99.90;;;;;;5139408;27;19930;-56
2023/07/12 06:28:34;;;;;;;;;;;15.90;99.90;;;;;;5127516;27;19947;-55
2023/07/12 06:31:01;;;;;;;;;;;16.00;99.90;;;;;;5130733;27;19919;-53
2023/07/12 06:33:27;;;;;;;;;;;16.00;99.90;;;;;;5135043;27;19911;-56
2023/07/12 06:35:53;;;;;;;;;;;16.10;99.90;;;;;;5133084;27;19936;-54
2023/07/12 06:38:18;;;;;;;;;;;16.20;99.90;;;;;;5138070;27;19915;-56
2023/07/12 06:40:45;;;;;;;;;;;16.30;99.90;;;;;;5138199;27;19911;-55
2023/07/12 06:43:15;;;;;;;;;;;16.30;99.90;;;;;;5131423;27;19916;-55
2023/07/12 06:45:43;;;;;;;;;;;16.40;99.90;;;;;;5133248;27;19919;-56
2023/07/12 06:48:09;;;;;;;;;;;16.60;99.90;;;;;;5142057;27;19956;-53
2023/07/12 06:50:35;;;;;;;;;;;16.70;99.90;;;;;;5138082;27;19911;-56
2023/07/12 06:53:00;;;;;;;;;;;16.80;99.90;;;;;;5134461;27;19961;-56
2023/07/12 06:55:26;;;;;;;;;;;16.90;99.90;;;;;;5140630;27;19914;-54
2023/07/12 06:57:51;;;;;;;;;;;17.00;99.90;;;;;;5138010;27;19926;-54
2023/07/12 07:00:17;;;;;;;;;;;17.00;99.90;;;;;;5138753;27;19911;-54
2023/07/12 07:02:43;;;;;;;;;;;17.10;99.90;;;;;;5137935;27;19918;-56
2023/07/12 07:05:08;;;;;;;;;;;17.10;99.90;;;;;;5140082;27;19918;-56
2023/07/12 07:07:34;;;;;;;;;;;17.00;99.90;;;;;;5140806;27;19911;-55
2023/07/12 07:10:00;;;;;;;;;;;17.00;99.90;;;;;;5137779;27;19915;-52
2023/07/12 07:12:26;;;;;;;;;;;17.00;99.90;;;;;;5134753;27;19951;-55
2023/07/12 07:14:52;;;;;;;;;;;17.00;99.90;;;;;;5120715;27;19956;-56
2023/07/12 07:17:18;;;;;;;;;;;17.00;99.90;;;;;;5139916;27;19922;-56
2023/07/12 07:19:44;;;;;;;;;;;17.10;99.90;;;;;;5134256;27;19923;-56
2023/07/12 07:22:09;;;;;;;;;;;17.10;99.90;;;;;;5132349;27;21561;-55
2023/07/12 07:24:35;;;;;;;;;;;17.10;99.90;;;;;;5138959;27;20462;-54
2023/07/12 07:27:01;;;;;;;;;;;17.10;99.90;;;;;;5137769;27;19912;-56
2023/07/12 07:29:26;;;;;;;;;;;17.20;99.90;;;;;;5137880;27;19941;-56
2023/07/12 07:31:52;;;;;;;;;;;17.30;99.90;;;;;;5131632;27;19911;-56
2023/07/12 07:34:17;;;;;;;;;;;17.40;99.90;;;;;;5138493;27;19911;-56
2023/07/12 07:36:43;;;;;;;;;;;17.40;99.90;;;;;;5128757;27;19950;-56
2023/07/12 07:39:21;;;;;;;;;;;17.60;99.90;;;;;;5128721;27;20010;-56
2023/07/12 07:41:58;;;;;;;;;;;17.50;99.90;;;;;;5137666;27;19916;-56
2023/07/12 07:44:30;;;;;;;;;;;17.50;99.90;;;;;;5137230;27;19912;-54
2023/07/12 07:46:56;;;;;;;;;;;17.60;99.90;;;;;;5131357;27;19919;-55
2023/07/12 07:49:25;;;;;;;;;;;17.70;99.90;;;;;;5127655;27;19911;-52
2023/07/12 07:51:51;;;;;;;;;;;17.70;99.90;;;;;;5127239;27;20020;-56
2023/07/12 07:54:17;;;;;;;;;;;17.70;99.90;;;;;;5132428;27;19963;-56
2023/07/12 07:56:43;;;;;;;;;;;17.80;99.90;;;;;;5129489;27;19912;-56
2023/07/12 07:59:08;;;;;;;;;;;17.80;99.90;;;;;;5130569;27;19916;-56
2023/07/12 08:01:34;;;;;;;;;;;17.80;99.90;;;;;;5129758;27;20010;-56
2023/07/12 08:04:00;;;;;;;;;;;17.70;99.90;;;;;;5127052;27;19912;-55
2023/07/12 08:06:25;;;;;;;;;;;17.70;99.90;;;;;;5127660;27;19912;-56
2023/07/12 08:08:51;;;;;;;;;;;17.70;99.90;;;;;;5126785;27;19918;-56
2023/07/12 08:11:17;;;;;;;;;;;17.70;99.90;;;;;;5127037;27;19972;-56
2023/07/12 08:13:43;;;;;;;;;;;17.80;99.90;;;;;;5128912;27;19911;-57
2023/07/12 08:16:08;;;;;;;;;;;17.80;99.90;;;;;;5128784;27;19919;-57
2023/07/12 08:18:34;;;;;;;;;;;17.70;99.90;;;;;;5127330;27;19935;-56
2023/07/12 08:21:00;;;;;;;;;;;17.70;99.90;;;;;;5127576;27;20259;-57
2023/07/12 08:23:29;;;;;;;;;;;17.70;99.90;;;;;;5118051;27;20402;-56
2023/07/12 08:25:55;;;;;;;;;;;17.80;99.90;;;;;;5127057;27;19945;-55
2023/07/12 08:28:21;;;;;;;;;;;17.80;99.90;;;;;;5118628;27;19915;-54
2023/07/12 08:30:46;;;;;;;;;;;17.90;99.90;;;;;;5124244;27;19957;-56
2023/07/12 08:33:16;;;;;;;;;;;18.00;99.90;;;;;;5138852;27;19908;-56
2023/07/12 08:35:41;;;;;;;;;;;18.00;99.90;;;;;;5133547;27;19915;-56
2023/07/12 08:38:08;;;;;;;;;;;18.10;99.90;;;;;;5118684;28;20374;-57
2023/07/12 08:40:44;;;;;;;;;;;18.20;99.90;;;;;;5118293;28;20002;-56
2023/07/12 08:43:12;;;;;;;;;;;18.20;99.90;;;;;;5126942;27;19914;-57
2023/07/12 08:45:38;;;;;;;;;;;18.20;99.90;;;;;;5131696;27;19918;-56
2023/07/12 08:48:08;;;;;;;;;;;18.30;99.90;;;;;;5134334;27;19915;-56
2023/07/12 08:50:43;;;;;;;;;;;18.20;99.90;;;;;;5124436;27;19912;-57
2023/07/12 08:53:15;;;;;;;;;;;18.20;99.90;;;;;;5125160;27;19912;-57
2023/07/12 08:55:41;;;;;;;;;;;18.30;99.90;;;;;;5137478;27;19960;-58
2023/07/12 08:58:23;;;;;;;;;;;18.40;99.90;;;;;;5138837;27;19911;-58
2023/07/12 09:01:10;;;;;;;;;;;18.30;99.90;;;;;;5138683;27;20429;-56
2023/07/12 09:03:35;;;;;;;;;;;18.30;99.90;;;;;;5139198;27;19907;-57
2023/07/12 09:06:01;;;;;;;;;;;18.30;99.90;;;;;;5139259;27;19956;-57
2023/07/12 09:08:32;;;;;;;;;;;18.40;99.90;;;;;;5139456;27;19915;-57
2023/07/12 09:10:58;;;;;;;;;;;18.40;99.90;;;;;;5139149;27;19908;-65
2023/07/12 09:13:38;;;;;;;;;;;18.50;99.90;;;;;;5139139;27;20295;-65
2023/07/12 09:16:04;;;;;;;;;;;18.60;99.90;;;;;;5138922;27;19908;-65
2023/07/12 09:18:37;;;;;;;;;;;18.70;99.90;;;;;;5116919;28;19926;-65
2023/07/12 09:21:14;;;;;;;;;;;18.70;99.90;;;;;;5118670;28;19976;-65
2023/07/12 09:23:41;;;;;;;;;;;18.80;99.90;;;;;;5118437;28;19908;-65
2023/07/12 09:26:20;;;;;;;;;;;18.80;99.90;;;;;;5118178;28;20244;-65
2023/07/12 09:28:46;;;;;;;;;;;18.90;99.90;;;;;;5118457;28;19908;-65
2023/07/12 09:31:16;;;;;;;;;;;19.00;99.90;;;;;;5118501;28;19907;-65
2023/07/12 09:33:44;;;;;;;;;;;19.00;99.90;;;;;;5118614;28;19961;-65
2023/07/12 09:36:14;;;;;;;;;;;19.20;99.90;;;;;;5118437;28;19961;-65
2023/07/12 09:38:40;;;;;;;;;;;19.10;99.90;;;;;;5118260;28;19937;-65
2023/07/12 09:41:09;;;;;;;;;;;18.90;99.90;;;;;;5118493;28;19908;-65
2023/07/12 09:43:37;;;;;;;;;;;18.90;99.90;;;;;;5118430;28;19922;-65
2023/07/12 09:46:03;;;;;;;;;;;19.10;99.90;;;;;;5118304;28;20404;-65
2023/07/12 09:48:34;;;;;;;;;;;19.30;99.90;;;;;;5118451;28;19908;-65
2023/07/12 09:51:20;;;;;;;;;;;19.50;99.90;;;;;;5118730;28;20331;-65
2023/07/12 09:53:48;;;;;;;;;;;19.70;99.90;;;;;;5096288;28;19915;-65
2023/07/12 09:56:32;;;;;;;;;;;19.70;99.90;;;;;;5118353;28;19911;-64
2023/07/12 09:59:09;;;;;;;;;;;19.70;99.90;;;;;;5117906;28;19917;-64
2023/07/12 10:01:43;;;;;;;;;;;20.00;99.90;;;;;;5118084;28;19912;-64
2023/07/12 10:04:19;;;;;;;;;;;20.00;99.90;;;;;;5118959;28;19914;-64
2023/07/12 10:06:48;;;;;;;;;;;20.00;99.90;;;;;;5118287;28;20002;-64
2023/07/12 10:09:29;;;;;;;;;;;20.00;99.90;;;;;;5118560;28;19922;-64
2023/07/12 10:12:03;;;;;;;;;;;20.20;99.90;;;;;;5115019;28;19924;-64
2023/07/12 10:14:37;;;;;;;;;;;20.20;99.90;;;;;;5108389;28;20404;-64
2023/07/12 10:17:02;;;;;;;;;;;20.40;99.90;;;;;;5115337;28;20339;-64
2023/07/12 10:19:30;;;;;;;;;;;20.50;99.90;;;;;;5117245;28;19970;-64
2023/07/12 10:21:58;;;;;;;;;;;20.60;99.90;;;;;;5117703;28;20374;-64
2023/07/12 10:24:29;;;;;;;;;;;21.00;99.90;;;;;;5118071;28;19908;-64
2023/07/12 10:26:55;;;;;;;;;;;21.20;99.90;;;;;;5118333;28;19915;-64
2023/07/12 10:29:24;;;;;;;;;;;21.40;98.40;;;;;;5099641;28;19912;-64
2023/07/12 10:31:56;;;;;;;;;;;22.00;99.90;;;;;;5118021;28;20124;-64
2023/07/12 10:34:43;;;;;;;;;;;23.00;99.90;;;;;;5118025;28;19961;-64
2023/07/12 10:37:11;;;;;;;;;;;22.60;95.80;;;;;;5118751;28;19907;-64
2023/07/12 10:39:37;;;;;;;;;;;22.90;96.40;;;;;;5121474;28;19908;-64
2023/07/12 10:42:29;;;;;;;;;;;23.00;99.90;;;;;;5121402;28;20389;-64
2023/07/12 10:44:55;;;;;;;;;;;22.90;91.10;;;;;;5097709;28;19915;-64
2023/07/12 10:47:23;;;;;;;;;;;23.10;99.90;;;;;;5121352;28;19955;-64
2023/07/12 10:49:57;;;;;;;;;;;23.70;96.20;;;;;;5121525;28;19922;-65
2023/07/12 10:52:30;;;;;;;;;;;24.50;89.50;;;;;;5121227;28;20444;-64
2023/07/12 10:55:02;;;;;;;;;;;24.30;93.20;;;;;;5121028;28;19915;-64
2023/07/12 10:57:28;;;;;;;;;;;24.70;93.10;;;;;;5121279;28;19911;-64
2023/07/12 11:00:02;;;;;;;;;;;24.90;95.40;;;;;;5120928;28;20306;-64
2023/07/12 11:02:29;;;;;;;;;;;25.60;73.20;;;;;;5120925;28;19914;-64
2023/07/12 11:04:55;;;;;;;;;;;25.30;86.50;;;;;;5121389;28;19908;-64
2023/07/12 11:07:21;;;;;;;;;;;25.30;85.10;;;;;;5121315;28;19988;-64
2023/07/12 11:10:17;;;;;;;;;;;25.10;83.40;;;;;;5121171;28;19954;-64
2023/07/12 11:12:48;;;;;;;;;;;25.50;73.80;;;;;;5107184;28;19907;-64
2023/07/12 11:15:22;;;;;;;;;;;24.90;71.50;;;;;;5121256;28;20332;-64
2023/07/12 11:17:53;;;;;;;;;;;24.40;82.60;;;;;;5119549;28;19919;-64
2023/07/12 11:20:25;;;;;;;;;;;25.00;91.30;;;;;;5120318;28;19967;-64
2023/07/12 11:23:00;;;;;;;;;;;26.70;80.90;;;;;;5120820;28;19912;-64
2023/07/12 11:25:34;;;;;;;;;;;26.50;78.80;;;;;;5120917;28;20269;-64
2023/07/12 11:28:04;;;;;;;;;;;27.60;77.70;;;;;;5120360;28;19915;-64
2023/07/12 11:30:43;;;;;;;;;;;28.00;81.80;;;;;;5120654;28;20427;-64
2023/07/12 11:33:48;;;;;;;;;;;28.20;64.90;;;;;;5120400;28;19907;-64
2023/07/12 11:36:31;;;;;;;;;;;27.60;76.80;;;;;;5039417;28;19916;-64
2023/07/12 11:38:59;;;;;;;;;;;27.30;63.90;;;;;;5059867;28;19962;-64
2023/07/12 11:41:29;;;;;;;;;;;27.00;74.20;;;;;;5120192;28;19908;-64
2023/07/12 11:44:21;;;;;;;;;;;26.70;69.90;;;;;;5120339;28;19955;-64
2023/07/12 11:46:51;;;;;;;;;;;26.40;65.40;;;;;;5117911;28;19908;-64
2023/07/12 11:49:41;;;;;;;;;;;26.60;68.80;;;;;;5120319;28;19908;-64
2023/07/12 11:52:18;;;;;;;;;;;26.90;66.70;;;;;;5119831;28;20320;-64
2023/07/12 11:54:47;;;;;;;;;;;27.10;69.90;;;;;;5119872;28;19915;-64
2023/07/12 11:57:22;;;;;;;;;;;25.90;66.40;;;;;;5119751;28;19908;-64
2023/07/12 11:59:50;;;;;;;;;;;25.80;74.70;;;;;;5120036;28;19930;-64
2023/07/12 12:02:20;;;;;;;;;;;26.20;71.20;;;;;;5101505;28;19914;-64
2023/07/12 12:04:55;;;;;;;;;;;26.70;66.10;;;;;;5120007;28;19975;-64
2023/07/12 12:07:26;;;;;;;;;;;26.90;71.50;;;;;;5120160;28;19908;-64
2023/07/12 12:09:56;;;;;;;;;;;27.30;68.10;;;;;;5119974;28;19908;-64
2023/07/12 12:12:28;;;;;;;;;;;27.40;66.40;;;;;;5119777;28;20407;-64
2023/07/12 12:14:57;;;;;;;;;;;27.80;66.20;;;;;;5119596;28;19915;-64
2023/07/12 12:17:26;;;;;;;;;;;27.50;61.20;;;;;;5118142;28;20290;-64
2023/07/12 12:20:04;;;;;;;;;;;26.70;65.50;;;;;;5119634;28;19951;-64
2023/07/12 12:22:32;;;;;;;;;;;27.00;61.50;;;;;;5119696;28;19908;-64
2023/07/12 12:25:00;;;;;;;;;;;27.10;66.00;;;;;;5119430;28;19912;-64
2023/07/12 12:27:34;;;;;;;;;;;27.70;66.20;;;;;;5119488;28;19907;-64
2023/07/12 12:30:21;;;;;;;;;;;28.30;64.00;;;;;;5119160;28;19943;-64
2023/07/12 12:33:02;;;;;;;;;;;28.30;62.70;;;;;;5118991;28;20325;-64
2023/07/12 12:35:47;;;;;;;;;;;27.20;63.20;;;;;;5118980;28;19936;-64
2023/07/12 12:38:33;;;;;;;;;;;27.30;62.80;;;;;;5117213;28;19922;-64
2023/07/12 12:41:22;;;;;;;;;;;27.20;64.10;;;;;;5118238;28;19962;-64
2023/07/12 12:44:07;;;;;;;;;;;27.00;61.70;;;;;;5118660;28;19916;-63
2023/07/12 12:46:42;;;;;;;;;;;27.20;62.80;;;;;;5119064;28;19908;-64
2023/07/12 12:49:36;;;;;;;;;;;;;;;;;;;;;
2023/07/12 12:52:21;;;;;;;;;;;27.80;65.20;;;;;;5118730;28;20282;-64
2023/07/12 12:54:50;;;;;;;;;;;27.00;61.90;;;;;;5119389;28;19908;-64
2023/07/12 12:57:22;;;;;;;;;;;27.40;64.00;;;;;;5118752;28;19908;-64
2023/07/12 12:59:51;;;;;;;;;;;27.40;62.30;;;;;;5118309;28;20393;-64
2023/07/12 13:02:27;;;;;;;;;;;26.80;59.10;;;;;;5118908;28;19908;-63
2023/07/12 13:04:53;;;;;;;;;;;26.60;60.90;;;;;;5118775;28;19907;-63
2023/07/12 13:07:29;;;;;;;;;;;26.90;63.70;;;;;;5117968;28;20010;-63
2023/07/12 13:10:07;;;;;;;;;;;26.60;62.50;;;;;;5117792;28;19907;-63
2023/07/12 13:12:44;;;;;;;;;;;;;;;;;;;;;
2023/07/12 13:15:18;;;;;;;;;;;27.20;61.80;;;;;;5118729;28;19994;-64
2023/07/12 13:17:57;;;;;;;;;;;27.70;62.30;;;;;;5118184;28;19920;-64
2023/07/12 13:20:25;;;;;;;;;;;27.80;62.50;;;;;;5118521;28;19947;-64
2023/07/12 13:22:52;;;;;;;;;;;28.10;60.30;;;;;;5117524;28;20182;-64
2023/07/12 13:25:19;;;;;;;;;;;27.70;60.30;;;;;;5118380;28;20405;-64
2023/07/12 13:27:48;;;;;;;;;;;26.80;60.30;;;;;;5118104;28;19907;-64
2023/07/12 13:30:16;;;;;;;;;;;26.00;62.50;;;;;;5118248;28;20330;-64
2023/07/12 13:32:42;;;;;;;;;;;26.10;62.00;;;;;;5118269;28;19958;-63
2023/07/12 13:35:14;;;;;;;;;;;25.40;64.90;;;;;;5118206;28;19908;-64
2023/07/12 13:37:40;;;;;;;;;;;25.30;63.90;;;;;;5100081;28;19912;-64
2023/07/12 13:40:10;;;;;;;;;;;25.70;64.00;;;;;;5118437;28;20338;-64
2023/07/12 13:42:36;;;;;;;;;;;26.00;65.90;;;;;;5118445;28;20317;-64
2023/07/12 13:45:01;;;;;;;;;;;26.60;63.70;;;;;;5117989;28;19956;-63
2023/07/12 13:47:27;;;;;;;;;;;26.70;63.40;;;;;;5118232;28;20278;-63
2023/07/12 13:49:54;;;;;;;;;;;25.60;63.10;;;;;;5118419;28;19915;-63
2023/07/12 13:52:21;;;;;;;;;;;25.60;63.90;;;;;;5118315;28;19908;-63
2023/07/12 13:54:47;;;;;;;;;;;25.70;64.60;;;;;;5118454;28;19943;-63
2023/07/12 13:57:14;;;;;;;;;;;25.30;65.40;;;;;;5117964;28;20312;-63
2023/07/12 13:59:40;;;;;;;;;;;25.50;66.60;;;;;;5118246;28;19999;-63
2023/07/12 14:02:16;;;;;;;;;;;25.80;64.20;;;;;;5118261;28;19970;-63
2023/07/12 14:04:42;;;;;;;;;;;25.80;63.60;;;;;;5117822;28;20296;-63
2023/07/12 14:07:10;;;;;;;;;;;25.00;66.20;;;;;;5117943;28;19907;-63
2023/07/12 14:09:36;;;;;;;;;;;25.00;66.10;;;;;;5118067;28;19907;-63
2023/07/12 14:12:02;;;;;;;;;;;24.80;66.90;;;;;;5120692;28;20025;-63
2023/07/12 14:14:28;;;;;;;;;;;24.60;68.30;;;;;;5122109;28;20022;-63
2023/07/12 14:16:54;;;;;;;;;;;25.00;67.60;;;;;;5121863;28;19953;-63
2023/07/12 14:19:19;;;;;;;;;;;25.10;66.10;;;;;;5121448;28;19991;-63
2023/07/12 14:21:45;;;;;;;;;;;25.00;66.40;;;;;;5121609;28;19911;-63
2023/07/12 14:24:13;;;;;;;;;;;24.80;67.00;;;;;;5121655;28;19919;-63
2023/07/12 14:26:39;;;;;;;;;;;24.70;66.10;;;;;;5122154;28;20302;-63
2023/07/12 14:29:05;;;;;;;;;;;24.60;67.50;;;;;;5121629;28;19921;-63
2023/07/12 14:31:30;;;;;;;;;;;24.50;68.00;;;;;;5121756;28;19912;-63
2023/07/12 14:33:56;;;;;;;;;;;24.60;67.80;;;;;;5121617;28;19915;-63